createdAt,value
2018-03-08T00:00:55.117Z,11.97
2018-03-08T00:03:23.702Z,12.19
2018-03-08T00:05:52.264Z,12.27
2018-03-08T00:08:20.810Z,12.23
2018-03-08T00:10:49.599Z,12.12
2018-03-08T00:13:18.228Z,12.25
2018-03-08T00:15:46.777Z,12.37
2018-03-08T00:18:15.585Z,11.67
2018-03-08T00:20:44.323Z,12.49
2018-03-08T00:23:12.921Z,12.58
2018-03-08T00:25:41.484Z,12.65
2018-03-08T00:28:10.002Z,12.71
2018-03-08T00:30:38.532Z,12.78
2018-03-08T00:33:07.110Z,12.80
2018-03-08T00:35:35.656Z,12.79
2018-03-08T00:38:04.862Z,12.78
2018-03-08T00:40:33.439Z,12.73
2018-03-08T00:43:01.981Z,12.72
2018-03-08T00:45:30.507Z,12.71
2018-03-08T00:47:59.168Z,12.73
2018-03-08T00:50:27.882Z,12.75
2018-03-08T00:52:56.421Z,12.75
2018-03-08T00:55:25.987Z,12.44
2018-03-08T00:57:54.541Z,12.55
2018-03-08T01:00:25.191Z,12.45
2018-03-08T01:02:53.699Z,12.49
2018-03-08T01:05:22.336Z,12.45
2018-03-08T01:07:50.957Z,12.39
2018-03-08T01:10:19.668Z,12.24
2018-03-08T01:12:48.210Z,12.29
2018-03-08T01:15:16.938Z,12.13
2018-03-08T01:17:45.470Z,11.91
2018-03-08T01:20:14.028Z,12.04
2018-03-08T01:22:42.632Z,12.09
2018-03-08T01:25:11.295Z,12.16
2018-03-08T01:29:55.410Z,12.16
2018-03-08T01:35:03.939Z,12.26
2018-03-08T01:37:32.516Z,12.30
2018-03-08T01:40:01.219Z,12.36
2018-03-08T01:42:29.926Z,12.44
2018-03-08T01:44:58.500Z,12.47
2018-03-08T01:47:27.089Z,12.49
2018-03-08T01:49:56.589Z,12.42
2018-03-08T01:52:25.330Z,12.46
2018-03-08T01:54:54.051Z,12.49
2018-03-08T01:57:22.682Z,12.51
2018-03-08T01:59:51.291Z,12.52
2018-03-08T02:02:19.891Z,12.49
2018-03-08T02:04:48.864Z,12.36
2018-03-08T02:07:17.497Z,12.10
2018-03-08T02:09:46.078Z,12.07
2018-03-08T02:12:14.692Z,12.14
2018-03-08T02:14:43.293Z,12.11
2018-03-08T02:17:12.033Z,11.96
2018-03-08T02:19:40.686Z,11.94
2018-03-08T02:22:09.489Z,11.81
2018-03-08T02:24:38.144Z,11.78
2018-03-08T02:27:06.783Z,11.66
2018-03-08T02:29:35.654Z,11.69
2018-03-08T02:32:04.824Z,11.75
2018-03-08T02:34:33.511Z,11.68
2018-03-08T02:37:02.880Z,11.76
2018-03-08T02:39:31.646Z,11.73
2018-03-08T02:42:00.683Z,11.85
2018-03-08T02:44:30.092Z,11.88
2018-03-08T02:46:58.728Z,11.63
2018-03-08T02:49:27.424Z,11.61
2018-03-08T02:51:56.029Z,11.39
2018-03-08T02:54:24.688Z,11.06
2018-03-08T02:56:53.367Z,10.86
2018-03-08T02:59:22.253Z,10.65
2018-03-08T03:01:50.868Z,10.65
2018-03-08T03:04:19.635Z,10.54
2018-03-08T03:06:48.271Z,10.27
2018-03-08T03:09:16.919Z,10.23
2018-03-08T03:11:45.690Z,10.56
2018-03-08T03:14:14.986Z,10.72
2018-03-08T03:16:43.672Z,10.72
2018-03-08T03:19:12.315Z,11.02
2018-03-08T03:21:40.966Z,11.16
2018-03-08T03:24:09.623Z,11.29
2018-03-08T03:26:38.265Z,11.48
2018-03-08T03:29:07.777Z,11.59
2018-03-08T03:31:36.513Z,11.55
2018-03-08T03:34:05.336Z,11.58
2018-03-08T03:36:35.465Z,11.77
2018-03-08T03:39:04.256Z,11.82
2018-03-08T03:41:32.939Z,11.88
2018-03-08T03:44:01.710Z,11.95
2018-03-08T03:46:30.352Z,11.91
2018-03-08T03:48:59.915Z,12.05
2018-03-08T03:51:28.539Z,12.08
2018-03-08T03:53:57.356Z,12.10
2018-03-08T03:56:26.016Z,12.11
2018-03-08T03:58:54.744Z,12.09
2018-03-08T04:01:23.403Z,12.08
2018-03-08T04:03:52.310Z,12.04
2018-03-08T04:06:21.151Z,12.07
2018-03-08T04:08:49.850Z,12.08
2018-03-08T04:11:18.774Z,12.10
2018-03-08T04:13:47.407Z,12.10
2018-03-08T04:16:16.796Z,12.11
2018-03-08T04:18:45.526Z,12.11
2018-03-08T04:21:14.592Z,12.11
2018-03-08T04:23:43.447Z,12.09
2018-03-08T04:26:12.076Z,12.10
2018-03-08T04:28:40.828Z,12.11
2018-03-08T04:31:09.461Z,12.10
2018-03-08T04:33:38.103Z,12.05
2018-03-08T04:36:06.895Z,12.00
2018-03-08T04:38:36.125Z,12.00
2018-03-08T04:41:04.940Z,12.00
2018-03-08T04:43:34.366Z,11.97
2018-03-08T04:46:03.023Z,11.91
2018-03-08T04:48:31.624Z,11.90
2018-03-08T04:51:00.450Z,11.85
2018-03-08T04:53:29.177Z,11.76
2018-03-08T04:55:58.082Z,11.72
2018-03-08T04:58:27.403Z,11.73
2018-03-08T05:00:56.199Z,11.72
2018-03-08T05:03:24.892Z,11.74
2018-03-08T05:05:53.667Z,11.74
2018-03-08T05:08:22.296Z,11.76
2018-03-08T05:10:50.990Z,11.76
2018-03-08T05:13:19.758Z,11.78
2018-03-08T05:15:48.423Z,11.81
2018-03-08T05:18:17.173Z,11.82
2018-03-08T05:20:46.058Z,11.80
2018-03-08T05:23:15.362Z,11.80
2018-03-08T05:25:44.026Z,11.78
2018-03-08T05:28:12.784Z,11.77
2018-03-08T05:30:41.432Z,11.78
2018-03-08T05:33:10.077Z,11.82
2018-03-08T05:35:38.915Z,11.83
2018-03-08T05:38:07.602Z,11.81
2018-03-08T05:40:36.373Z,12.05
2018-03-08T05:43:05.945Z,12.13
2018-03-08T05:45:34.602Z,12.20
2018-03-08T05:48:03.303Z,12.25
2018-03-08T05:50:32.163Z,12.28
2018-03-08T05:53:00.889Z,12.25
2018-03-08T05:55:30.216Z,12.27
2018-03-08T05:57:58.872Z,12.32
2018-03-08T06:00:27.473Z,12.39
2018-03-08T06:02:56.169Z,12.48
2018-03-08T06:05:24.903Z,12.56
2018-03-08T06:07:53.549Z,12.62
2018-03-08T06:10:22.155Z,12.65
2018-03-08T06:12:50.803Z,12.73
2018-03-08T06:15:19.652Z,12.76
2018-03-08T06:17:48.293Z,12.72
2018-03-08T06:20:16.930Z,12.67
2018-03-08T06:22:45.549Z,12.59
2018-03-08T06:25:14.470Z,12.45
2018-03-08T06:27:43.394Z,12.58
2018-03-08T06:30:12.435Z,12.65
2018-03-08T06:32:41.031Z,12.73
2018-03-08T06:35:10.230Z,12.80
2018-03-08T06:37:38.859Z,12.76
2018-03-08T06:40:07.472Z,12.58
2018-03-08T06:42:36.139Z,12.29
2018-03-08T06:45:04.791Z,11.93
2018-03-08T06:47:33.427Z,12.27
2018-03-08T06:50:02.054Z,12.37
2018-03-08T06:52:30.727Z,12.34
2018-03-08T06:54:59.387Z,12.29
2018-03-08T06:57:28.157Z,12.21
2018-03-08T06:59:56.806Z,12.29
2018-03-08T07:02:25.439Z,12.31
2018-03-08T07:04:54.807Z,11.94
2018-03-08T07:07:23.451Z,12.19
2018-03-08T07:09:52.198Z,11.60
2018-03-08T07:12:20.814Z,11.63
2018-03-08T07:14:49.498Z,11.06
2018-03-08T07:17:18.106Z,10.61
2018-03-08T07:19:47.667Z,10.82
2018-03-08T07:22:16.322Z,10.09
2018-03-08T07:24:44.942Z,9.80
2018-03-08T07:27:13.598Z,10.12
2018-03-08T07:29:42.204Z,10.45
2018-03-08T07:32:10.825Z,10.58
2018-03-08T07:34:39.894Z,10.34
2018-03-08T07:37:08.507Z,10.69
2018-03-08T07:39:37.129Z,10.86
2018-03-08T07:42:05.911Z,10.81
2018-03-08T07:44:35.609Z,10.58
2018-03-08T07:47:04.225Z,10.73
2018-03-08T07:49:33.056Z,10.75
2018-03-08T07:52:02.374Z,10.90
2018-03-08T07:54:31.552Z,11.10
2018-03-08T07:57:00.919Z,11.22
2018-03-08T07:59:30.496Z,11.00
2018-03-08T08:01:59.245Z,10.63
2018-03-08T08:04:39.703Z,10.54
2018-03-08T08:07:20.272Z,10.88
2018-03-08T08:09:48.922Z,10.92
2018-03-08T08:12:18.415Z,10.99
2018-03-08T08:14:47.366Z,11.23
2018-03-08T08:17:16.066Z,11.33
2018-03-08T08:19:44.856Z,11.46
2018-03-08T08:22:13.608Z,11.65
2018-03-08T08:24:42.458Z,11.84
2018-03-08T08:27:11.257Z,12.04
2018-03-08T08:29:40.171Z,12.30
2018-03-08T08:32:10.607Z,12.35
2018-03-08T08:34:39.320Z,12.07
2018-03-08T08:37:08.130Z,12.24
2018-03-08T08:39:36.799Z,12.28
2018-03-08T08:42:05.507Z,12.40
2018-03-08T08:44:34.252Z,11.61
2018-03-08T08:47:03.030Z,12.60
2018-03-08T08:49:31.703Z,12.53
2018-03-08T08:52:00.874Z,12.77
2018-03-08T08:54:29.698Z,12.84
2018-03-08T08:56:58.642Z,12.91
2018-03-08T08:59:27.364Z,13.11
2018-03-08T09:01:56.096Z,13.43
2018-03-08T09:04:25.457Z,13.57
2018-03-08T09:06:54.441Z,13.84
2018-03-08T09:09:23.335Z,14.08
2018-03-08T09:11:52.083Z,14.07
2018-03-08T09:14:21.680Z,14.22
2018-03-08T09:16:50.378Z,13.97
2018-03-08T09:19:19.091Z,13.97
2018-03-08T09:24:23.664Z,14.95
2018-03-08T09:26:55.221Z,15.16
2018-03-08T09:29:23.856Z,15.09
2018-03-08T09:31:54.012Z,15.48
2018-03-08T09:34:22.793Z,15.56
2018-03-08T09:36:51.530Z,16.00
2018-03-08T09:39:21.543Z,16.30
2018-03-08T09:41:50.267Z,16.86
2018-03-08T09:44:20.093Z,17.34
2018-03-08T09:46:50.703Z,17.69
2018-03-08T09:49:19.456Z,17.96
2018-03-08T09:51:48.972Z,17.68
2018-03-08T09:54:17.610Z,17.04
2018-03-08T09:56:46.535Z,16.60
2018-03-08T09:59:15.247Z,16.65
2018-03-08T10:01:44.057Z,17.02
2018-03-08T10:04:13.285Z,16.25
2018-03-08T10:06:42.539Z,15.91
2018-03-08T10:09:12.129Z,16.32
2018-03-08T10:11:40.988Z,16.96
2018-03-08T10:14:10.583Z,17.56
2018-03-08T10:16:39.498Z,17.53
2018-03-08T10:19:08.722Z,17.20
2018-03-08T10:21:44.719Z,16.95
2018-03-08T10:24:06.347Z,16.99
2018-03-08T10:26:35.195Z,17.24
2018-03-08T10:29:03.799Z,17.65
2018-03-08T10:31:33.622Z,17.96
2018-03-08T10:34:02.542Z,17.09
2018-03-08T10:36:31.964Z,16.67
2018-03-08T10:44:01.656Z,17.59
2018-03-08T10:46:30.392Z,17.99
2018-03-08T10:51:27.852Z,17.38
2018-03-08T10:53:56.693Z,17.02
2018-03-08T10:56:26.081Z,17.77
2018-03-08T10:58:56.856Z,18.09
2018-03-08T11:01:25.723Z,18.26
2018-03-08T11:03:55.478Z,18.80
2018-03-08T11:06:29.198Z,19.17
2018-03-08T11:08:57.941Z,18.38
2018-03-08T11:11:26.671Z,18.08
2018-03-08T11:13:57.875Z,18.23
2018-03-08T11:16:27.055Z,18.47
2018-03-08T11:18:56.853Z,18.77
2018-03-08T11:21:25.735Z,18.85
2018-03-08T11:23:55.364Z,19.26
2018-03-08T11:26:24.153Z,19.70
2018-03-08T11:28:55.948Z,19.97
2018-03-08T11:31:26.249Z,20.40
2018-03-08T11:33:55.163Z,20.50
2018-03-08T11:36:23.988Z,20.18
2018-03-08T11:38:53.748Z,20.13
2018-03-08T11:41:23.146Z,18.93
2018-03-08T11:43:51.176Z,18.98
2018-03-08T11:46:19.893Z,19.35
2018-03-08T11:48:51.610Z,18.55
2018-03-08T11:51:21.348Z,18.06
2018-03-08T11:53:51.079Z,17.67
2018-03-08T11:56:20.684Z,17.02
2018-03-08T11:58:49.527Z,16.88
2018-03-08T12:01:18.240Z,17.09
2018-03-08T12:03:46.952Z,16.95
2018-03-08T12:06:15.791Z,16.19
2018-03-08T12:08:45.804Z,15.99
2018-03-08T12:11:14.441Z,15.94
2018-03-08T12:13:44.292Z,16.25
2018-03-08T12:16:12.946Z,16.15
2018-03-08T12:18:41.866Z,16.54
2018-03-08T12:21:11.485Z,16.86
2018-03-08T12:23:40.136Z,17.00
2018-03-08T12:26:08.852Z,16.80
2018-03-08T12:28:37.685Z,16.65
2018-03-08T12:31:07.409Z,16.62
2018-03-08T12:33:36.133Z,16.63
2018-03-08T12:36:04.881Z,16.60
2018-03-08T12:38:33.872Z,16.78
2018-03-08T12:41:02.623Z,17.06
2018-03-08T12:43:34.330Z,17.23
2018-03-08T12:46:03.493Z,17.43
2018-03-08T12:48:32.277Z,17.51
2018-03-08T12:51:01.002Z,17.43
2018-03-08T12:53:29.820Z,17.31
2018-03-08T12:55:59.062Z,17.38
2018-03-08T12:58:27.938Z,17.51
2018-03-08T13:00:57.913Z,17.44
2018-03-08T13:03:26.700Z,17.33
2018-03-08T13:05:55.539Z,17.60
2018-03-08T13:08:24.809Z,17.81
2018-03-08T13:10:54.085Z,17.33
2018-03-08T13:13:25.654Z,16.94
2018-03-08T13:15:55.143Z,16.86
2018-03-08T13:18:23.802Z,17.09
2018-03-08T13:20:53.187Z,17.46
2018-03-08T13:23:21.914Z,17.57
2018-03-08T13:25:50.574Z,17.64
2018-03-08T13:28:19.935Z,17.65
2018-03-08T13:30:49.883Z,17.73
2018-03-08T13:33:18.691Z,17.70
2018-03-08T13:35:47.428Z,17.75
2018-03-08T13:38:16.181Z,17.93
2018-03-08T13:40:45.279Z,18.08
2018-03-08T13:43:13.911Z,18.17
2018-03-08T13:45:43.006Z,18.05
2018-03-08T13:48:11.947Z,18.29
2018-03-08T13:53:17.263Z,18.21
2018-03-08T13:55:46.951Z,18.59
2018-03-08T13:58:16.985Z,18.74
2018-03-08T14:00:46.502Z,18.72
2018-03-08T14:03:15.309Z,19.01
2018-03-08T14:05:44.230Z,18.29
2018-03-08T14:08:12.992Z,18.19
2018-03-08T14:10:41.878Z,17.96
2018-03-08T14:13:10.779Z,18.05
2018-03-08T14:15:39.491Z,17.30
2018-03-08T14:18:23.506Z,18.36
2018-03-08T14:20:52.317Z,18.58
2018-03-08T14:23:21.925Z,18.76
2018-03-08T14:25:50.572Z,19.08
2018-03-08T14:28:19.139Z,19.26
2018-03-08T14:30:47.908Z,19.44
2018-03-08T14:33:16.587Z,19.39
2018-03-08T14:35:46.389Z,19.38
2018-03-08T14:38:16.009Z,19.57
2018-03-08T14:40:46.658Z,19.70
2018-03-08T14:43:15.794Z,19.74
2018-03-08T14:45:44.441Z,19.88
2018-03-08T14:48:15.160Z,19.99
2018-03-08T14:50:44.596Z,20.05
2018-03-08T14:53:14.513Z,20.04
2018-03-08T14:55:43.403Z,19.88
2018-03-08T14:58:11.996Z,19.77
2018-03-08T15:00:41.333Z,19.54
2018-03-08T15:03:09.939Z,19.42
2018-03-08T15:05:39.065Z,19.39
2018-03-08T15:08:08.574Z,19.47
2018-03-08T15:10:37.810Z,19.42
2018-03-08T15:13:07.116Z,19.39
2018-03-08T15:15:48.488Z,19.32
2018-03-08T15:18:18.308Z,19.30
2018-03-08T15:20:46.941Z,19.23
2018-03-08T15:23:15.633Z,19.37
2018-03-08T15:28:21.198Z,19.47
2018-03-08T15:30:49.866Z,19.49
2018-03-08T15:33:18.470Z,19.38
2018-03-08T15:35:48.195Z,19.50
2018-03-08T15:38:16.925Z,19.57
2018-03-08T15:40:45.642Z,19.55
2018-03-08T15:43:14.388Z,19.51
2018-03-08T15:45:44.084Z,19.35
2018-03-08T15:48:12.813Z,18.93
2018-03-08T15:50:41.442Z,18.55
2018-03-08T15:53:10.152Z,18.30
2018-03-08T15:55:41.814Z,17.92
2018-03-08T15:58:10.791Z,17.73
2018-03-08T16:00:39.495Z,17.38
2018-03-08T16:03:08.125Z,17.17
2018-03-08T16:11:11.562Z,16.43
2018-03-08T16:18:53.705Z,15.96
2018-03-08T16:21:22.360Z,16.01
2018-03-08T16:24:00.950Z,16.25
2018-03-08T16:26:32.961Z,16.20
2018-03-08T16:29:05.625Z,16.27
2018-03-08T16:31:34.601Z,16.25
2018-03-08T16:34:04.700Z,16.06
2018-03-08T16:36:33.304Z,16.18
2018-03-08T16:39:01.909Z,16.16
2018-03-08T16:41:30.817Z,16.25
2018-03-08T16:43:59.460Z,16.25
2018-03-08T16:46:29.278Z,16.31
2018-03-08T16:48:57.883Z,16.34
2018-03-08T16:51:26.550Z,16.46
2018-03-08T16:53:55.243Z,16.47
2018-03-08T16:56:24.614Z,16.37
2018-03-08T16:58:53.201Z,16.46
2018-03-08T17:01:21.912Z,16.40
2018-03-08T17:03:50.516Z,16.31
2018-03-08T17:06:19.283Z,16.25
2018-03-08T17:08:48.074Z,16.21
2018-03-08T17:11:16.712Z,16.25
2018-03-08T17:13:45.281Z,16.21
2018-03-08T17:16:13.940Z,16.13
2018-03-08T17:18:42.566Z,16.05
2018-03-08T17:21:11.384Z,15.94
2018-03-08T17:23:40.155Z,15.67
2018-03-08T17:26:08.946Z,15.67
2018-03-08T17:28:37.556Z,15.62
2018-03-08T17:31:06.253Z,15.47
2018-03-08T17:33:35.497Z,15.42
2018-03-08T17:36:04.107Z,15.33
2018-03-08T17:38:32.840Z,15.00
2018-03-08T17:41:01.562Z,15.03
2018-03-08T17:43:30.282Z,14.90
2018-03-08T17:45:58.904Z,14.86
2018-03-08T17:48:27.625Z,14.78
2018-03-08T17:50:56.347Z,14.68
2018-03-08T17:53:24.969Z,14.59
2018-03-08T17:55:53.611Z,14.49
2018-03-08T17:58:22.421Z,14.31
2018-03-08T18:00:51.042Z,14.35
2018-03-08T18:03:20.462Z,14.33
2018-03-08T18:05:49.181Z,14.30
2018-03-08T18:08:17.904Z,14.28
2018-03-08T18:10:46.522Z,14.26
2018-03-08T18:13:15.214Z,14.27
2018-03-08T18:15:43.968Z,14.26
2018-03-08T18:18:12.554Z,14.24
2018-03-08T18:20:41.311Z,14.21
2018-03-08T18:23:09.942Z,14.21
2018-03-08T18:25:38.598Z,14.13
2018-03-08T18:28:07.174Z,14.13
2018-03-08T18:30:35.798Z,13.11
2018-03-08T18:33:04.445Z,14.05
2018-03-08T18:35:33.144Z,14.02
2018-03-08T18:38:01.768Z,14.00
2018-03-08T18:40:30.483Z,13.95
2018-03-08T18:42:59.130Z,13.91
2018-03-08T18:45:27.737Z,13.87
2018-03-08T18:47:56.451Z,13.84
2018-03-08T18:50:25.036Z,13.76
2018-03-08T18:52:53.591Z,13.62
2018-03-08T18:55:22.213Z,13.64
2018-03-08T18:57:50.802Z,13.65
2018-03-08T19:00:19.432Z,13.67
2018-03-08T19:02:48.695Z,13.67
2018-03-08T19:05:17.433Z,13.67
2018-03-08T19:07:45.980Z,13.68
2018-03-08T19:10:15.047Z,13.77
2018-03-08T19:12:43.667Z,13.69
2018-03-08T19:15:12.380Z,13.53
2018-03-08T19:17:41.132Z,13.30
2018-03-08T19:20:09.722Z,12.95
2018-03-08T19:22:38.431Z,12.86
2018-03-08T19:25:07.280Z,12.64
2018-03-08T19:27:35.832Z,12.65
2018-03-08T19:30:04.625Z,12.45
2018-03-08T19:32:33.244Z,12.24
2018-03-08T19:35:02.067Z,12.27
2018-03-08T19:37:30.687Z,12.23
2018-03-08T19:39:59.414Z,12.35
2018-03-08T19:42:28.134Z,12.42
2018-03-08T19:44:56.852Z,12.26
2018-03-08T19:47:25.439Z,11.90
2018-03-08T19:49:54.056Z,11.78
2018-03-08T19:52:22.617Z,11.87
2018-03-08T19:54:51.275Z,11.80
2018-03-08T19:57:19.861Z,11.93
2018-03-08T19:59:48.481Z,11.72
2018-03-08T20:02:17.223Z,11.86
2018-03-08T20:04:45.925Z,11.85
2018-03-08T20:07:14.646Z,11.86
2018-03-08T20:09:43.284Z,11.88
2018-03-08T20:12:11.907Z,11.78
2018-03-08T20:14:40.465Z,11.52
2018-03-08T20:17:09.158Z,11.45
2018-03-08T20:19:37.854Z,11.42
2018-03-08T20:22:06.500Z,11.41
2018-03-08T20:24:35.148Z,11.59
2018-03-08T20:27:03.829Z,11.76
2018-03-08T20:29:36.270Z,11.93
2018-03-08T20:32:09.614Z,11.74
2018-03-08T20:34:38.315Z,11.52
2018-03-08T20:37:06.948Z,11.40
2018-03-08T20:39:35.665Z,11.33
2018-03-08T20:42:04.304Z,11.21
2018-03-08T20:44:33.101Z,11.13
2018-03-08T20:47:01.724Z,11.08
2018-03-08T20:49:31.153Z,11.00
2018-03-08T20:51:59.874Z,11.00
2018-03-08T20:54:29.395Z,10.98
2018-03-08T20:56:58.124Z,10.97
2018-03-08T20:59:26.839Z,10.82
2018-03-08T21:01:55.562Z,10.68
2018-03-08T21:04:24.281Z,10.71
2018-03-08T21:06:52.959Z,10.69
2018-03-08T21:09:21.627Z,10.65
2018-03-08T21:11:50.357Z,10.66
2018-03-08T21:14:19.069Z,10.66
2018-03-08T21:16:47.793Z,10.69
2018-03-08T21:19:17.035Z,10.61
2018-03-08T21:21:45.640Z,10.47
2018-03-08T21:24:14.364Z,10.55
2018-03-08T21:26:43.079Z,10.40
2018-03-08T21:29:11.801Z,10.36
2018-03-08T21:31:40.423Z,10.42
2018-03-08T21:34:09.145Z,10.38
2018-03-08T21:36:37.805Z,10.29
2018-03-08T21:39:06.590Z,10.19
2018-03-08T21:41:35.287Z,10.12
2018-03-08T21:44:04.147Z,10.30
2018-03-08T21:46:32.872Z,10.21
2018-03-08T21:49:01.601Z,10.11
2018-03-08T21:51:30.212Z,10.19
2018-03-08T21:53:58.923Z,10.14
2018-03-08T21:56:27.541Z,10.03
2018-03-08T21:58:56.384Z,10.12
2018-03-08T22:01:25.087Z,10.23
2018-03-08T22:03:53.710Z,10.19
2018-03-08T22:06:25.441Z,10.19
2018-03-08T22:08:54.064Z,10.26
2018-03-08T22:11:22.666Z,10.29
2018-03-08T22:13:51.305Z,10.21
2018-03-08T22:16:19.814Z,10.21
2018-03-08T22:18:48.550Z,10.14
2018-03-08T22:21:18.362Z,10.00
2018-03-08T22:23:46.997Z,9.95
2018-03-08T22:26:15.735Z,9.97
2018-03-08T22:28:44.427Z,9.97
2018-03-08T22:31:13.079Z,9.98
2018-03-08T22:33:41.690Z,10.03
2018-03-08T22:36:10.392Z,10.00
2018-03-08T22:38:39.119Z,10.04
2018-03-08T22:41:07.836Z,9.98
2018-03-08T22:43:36.464Z,10.02
2018-03-08T22:46:05.096Z,10.05
2018-03-08T22:48:33.787Z,10.07
2018-03-08T22:51:02.525Z,10.00
2018-03-08T22:53:32.349Z,10.06
2018-03-08T22:56:00.985Z,10.08
2018-03-08T22:58:29.577Z,10.00
2018-03-08T23:00:58.641Z,9.78
2018-03-08T23:03:30.250Z,9.84
2018-03-08T23:05:58.970Z,9.78
2018-03-08T23:08:27.594Z,9.81
2018-03-08T23:10:56.286Z,9.86
2018-03-08T23:13:25.036Z,9.88
2018-03-08T23:15:53.758Z,9.78
2018-03-08T23:18:22.479Z,9.86
2018-03-08T23:20:51.214Z,9.90
2018-03-08T23:23:20.025Z,9.90
2018-03-08T23:25:55.487Z,9.85
2018-03-08T23:28:24.191Z,9.87
2018-03-08T23:30:55.122Z,9.80
2018-03-08T23:33:23.752Z,9.76
2018-03-08T23:35:52.742Z,9.81
2018-03-08T23:38:21.347Z,9.72
2018-03-08T23:40:50.111Z,9.72
2018-03-08T23:43:18.831Z,9.69
2018-03-08T23:45:48.491Z,9.63
2018-03-08T23:48:17.075Z,9.66
2018-03-08T23:50:45.698Z,9.62
2018-03-08T23:53:14.420Z,9.65
2018-03-08T23:55:43.045Z,9.67
2018-03-08T23:58:11.702Z,9.68
